CDT,Max TemperatureF,Mean TemperatureF,Min TemperatureF,Max Dew PointF,MeanDew PointF,Min DewpointF,Max Humidity, Mean Humidity, Min Humidity, Max Sea Level PressureIn, Mean Sea Level PressureIn, Min Sea Level PressureIn, Max VisibilityMiles, Mean VisibilityMiles, Min VisibilityMiles, Max Wind SpeedMPH, Mean Wind SpeedMPH, Max Gust SpeedMPH,PrecipitationIn, CloudCover, Events, WindDirDegrees
2013-8-1,75,60,46,57,52,46,100,70,44,30.05,30.00,29.91,10,10,10,10,2,16,0.00,1,,291
2013-8-2,73,60,48,55,52,46,100,72,43,30.11,30.00,29.92,10,10,10,14,3,20,0.00,1,,340
2013-8-3,71,58,44,54,50,45,100,75,41,30.28,30.20,30.12,10,10,5,13,3,24,0.00,1,,343
2013-8-4,71,56,41,57,50,41,100,77,46,30.29,30.19,30.02,10,9,0,7,1,,0.00,2,Fog-Rain,155
2013-8-5,73,64,55,63,58,54,94,80,60,30.01,29.91,29.86,10,10,10,10,4,16,0.00,5,Rain-Thunderstorm,238
2013-8-6,71,58,46,63,56,46,100,90,64,29.89,29.82,29.76,10,9,1,18,2,30,1.25,3,Rain-Thunderstorm,160
2013-8-7,69,61,51,55,52,46,100,76,49,30.05,30.00,29.88,10,10,10,10,5,16,0.00,1,,334
2013-8-8,71,61,51,57,54,52,100,80,53,30.09,30.05,30.02,10,10,10,8,1,,0.00,5,Rain,337
2013-8-9,66,56,46,54,51,46,100,80,59,30.17,30.09,30.04,10,10,2,12,3,17,0.00,4,,299
2013-8-10,71,61,51,55,54,52,100,77,50,30.22,30.18,30.12,10,10,10,7,1,,0.00,4,,248
2013-8-11,73,60,48,59,55,48,100,80,57,30.13,30.10,30.06,10,10,7,8,1,,0.00,2,Rain,334
2013-8-12,73,60,46,57,52,46,100,76,47,30.16,30.10,30.08,10,10,1,13,3,18,0.00,1,Thunderstorm,341
2013-8-13,71,56,42,54,48,43,100,74,43,30.25,30.21,30.17,10,10,0,8,2,9,0.00,2,Fog,4
2013-8-14,73,58,42,54,49,43,100,74,41,30.24,30.19,30.12,10,10,10,7,0,,0.00,2,,250
2013-8-15,75,60,44,59,52,43,100,76,44,30.15,30.13,30.10,10,10,10,5,0,,0.00,2,,143
2013-8-16,78,64,50,61,55,50,100,73,44,30.19,30.17,30.15,10,10,7,12,2,16,0.00,3,,213
2013-8-17,78,63,48,61,57,48,100,75,51,30.18,30.14,30.08,10,10,5,14,4,22,0.00,1,,188
2013-8-18,78,66,55,63,60,55,100,73,57,30.11,30.05,29.97,10,10,10,16,6,24,0.00,3,,180
2013-8-19,84,75,66,72,66,61,88,76,62,29.99,29.94,29.90,10,10,7,10,5,,0.00,1,Rain,185
2013-8-20,89,76,64,73,69,64,100,81,52,29.91,29.88,29.84,10,7,0,13,4,20,0.00,2,Fog-Rain,182
2013-8-21,82,71,60,73,63,54,100,74,37,30.12,29.97,29.83,10,8,0,15,6,21,0.00,1,Fog-Rain-Thunderstorm,358
2013-8-22,77,64,51,55,52,46,94,64,36,30.22,30.18,30.11,10,10,10,9,2,,0.00,1,,17
2013-8-23,82,63,44,63,54,43,100,70,39,30.19,30.13,30.04,10,10,10,12,3,17,0.00,0,,153
2013-8-24,89,78,66,72,68,63,100,74,52,30.06,29.97,29.88,10,10,7,21,10,28,0.00,1,Thunderstorm,163
2013-8-25,89,82,75,73,73,72,89,75,59,29.98,29.95,29.91,10,10,7,8,5,,0.00,0,Thunderstorm,197
2013-8-26,89,79,69,77,73,70,100,86,62,30.01,29.96,29.89,10,8,1,32,2,43,0.49,2,Rain-Thunderstorm,105
2013-8-27,86,77,68,72,70,68,100,86,58,30.00,29.93,29.87,10,9,0,9,3,,0.00,3,Fog-Rain-Thunderstorm,32
2013-8-28,82,73,64,73,70,64,100,89,70,30.08,30.04,30.00,10,9,0,7,1,,0.00,0,Fog,130
2013-8-29,87,76,66,77,70,64,100,88,58,30.06,29.96,29.84,10,9,4,15,3,18,0.00,4,Rain-Thunderstorm,139
2013-8-30,78,69,60,72,64,61,100,83,61,30.04,29.98,29.92,10,10,5,13,6,16,0.00,4,,34
2013-8-31,86,72,59,68,63,59,100,84,48,29.95,29.85,29.76,10,10,7,18,3,29,0.00,1,Rain-Thunderstorm,194